Time;durP1;ratioP1;P1;durP2;ratioP2;P2;SDS_P1;SDS_P2;PMS_P1;PMS_P2;Temp;Humidity;BMP_temperature;BMP_pressure;BME280_temperature;BME280_humidity;BME280_pressure;Samples;Min_cycle;Max_cycle;Signal;HPM_P1;HPM_P2
2021/07/31 00:00:03;;;;;;;11.30;10.30;;;19.10;99.90;;;;;;5013269;28;20182;-67
2021/07/31 00:02:29;;;;;;;11.43;10.53;;;19.00;99.90;;;;;;5013587;28;20170;-67
2021/07/31 00:04:54;;;;;;;12.47;11.43;;;19.00;99.90;;;;;;5012867;28;20418;-67
2021/07/31 00:07:20;;;;;;;12.07;10.87;;;18.90;99.90;;;;;;5013215;28;20214;-67
2021/07/31 00:09:45;;;;;;;11.33;10.33;;;18.90;99.90;;;;;;5013041;28;20181;-67
2021/07/31 00:12:10;;;;;;;10.50;9.50;;;18.90;99.90;;;;;;5013129;28;20577;-67
2021/07/31 00:14:36;;;;;;;11.37;10.47;;;19.00;99.90;;;;;;5013439;28;20178;-67
2021/07/31 00:17:05;;;;;;;11.50;10.50;;;19.00;99.90;;;;;;5013046;28;20207;-67
2021/07/31 00:19:31;;;;;;;11.23;10.23;;;19.10;99.90;;;;;;5012802;28;20410;-67
2021/07/31 00:21:57;;;;;;;11.43;10.53;;;19.20;99.90;;;;;;5013010;28;20504;-67
2021/07/31 00:24:22;;;;;;;12.47;10.93;;;19.10;99.90;;;;;;5012995;28;20171;-67
2021/07/31 00:26:48;;;;;;;13.60;12.20;;;19.10;99.90;;;;;;5012768;28;20191;-67
2021/07/31 00:29:13;;;;;;;11.50;10.30;;;19.10;99.90;;;;;;5012716;28;20545;-67
2021/07/31 00:31:39;;;;;;;12.13;10.93;;;19.10;99.90;;;;;;5012879;28;20178;-67
2021/07/31 00:34:04;;;;;;;11.93;10.87;;;19.10;99.90;;;;;;5012876;28;20171;-67
2021/07/31 00:36:30;;;;;;;13.87;12.77;;;18.90;99.90;;;;;;5012724;28;20692;-67
2021/07/31 00:38:55;;;;;;;12.40;11.37;;;18.70;99.90;;;;;;5012482;28;20178;-67
2021/07/31 00:41:21;;;;;;;12.87;11.33;;;18.80;99.90;;;;;;5011475;28;20611;-67
2021/07/31 00:43:47;;;;;;;11.03;10.03;;;18.80;99.90;;;;;;5011356;28;20175;-67
2021/07/31 00:46:12;;;;;;;10.10;9.20;;;18.80;99.90;;;;;;5012675;28;20171;-67
2021/07/31 00:48:38;;;;;;;10.90;9.50;;;19.00;99.90;;;;;;5012401;28;20186;-67
2021/07/31 00:51:04;;;;;;;9.67;8.53;;;19.10;99.90;;;;;;5012663;28;20218;-67
2021/07/31 00:53:30;;;;;;;9.23;8.40;;;19.20;99.90;;;;;;5012671;28;20186;-67
2021/07/31 00:55:57;;;;;;;11.53;10.53;;;19.20;99.90;;;;;;5012387;28;20175;-67
2021/07/31 00:58:23;;;;;;;10.47;9.57;;;19.30;99.90;;;;;;5012195;28;20472;-67
2021/07/31 01:00:49;;;;;;;8.83;8.03;;;19.30;99.90;;;;;;5012381;28;20513;-67
2021/07/31 01:03:14;;;;;;;9.30;8.50;;;19.40;99.90;;;;;;5012499;28;20496;-67
2021/07/31 01:05:40;;;;;;;8.57;7.87;;;19.50;99.90;;;;;;5012407;28;20207;-67
2021/07/31 01:08:06;;;;;;;6.63;6.03;;;19.50;99.90;;;;;;5012239;28;20206;-67
2021/07/31 01:10:32;;;;;;;8.33;7.17;;;19.30;99.90;;;;;;5011982;28;20269;-67
2021/07/31 01:12:59;;;;;;;9.23;6.03;;;19.30;99.90;;;;;;5012237;28;20445;-67
2021/07/31 01:15:25;;;;;;;9.73;6.37;;;19.20;99.90;;;;;;5012255;28;20476;-67
2021/07/31 01:17:51;;;;;;;5.90;5.30;;;19.30;99.90;;;;;;5011249;28;20982;-67
2021/07/31 01:20:16;;;;;;;5.97;5.47;;;19.30;99.90;;;;;;5012003;28;20549;-67
2021/07/31 01:22:42;;;;;;;8.13;6.67;;;19.30;99.90;;;;;;5012229;28;20194;-67
2021/07/31 01:25:08;;;;;;;7.83;6.43;;;19.20;99.90;;;;;;5012040;28;20229;-67
2021/07/31 01:27:34;;;;;;;7.87;7.27;;;19.10;99.90;;;;;;5012100;28;20282;-67
2021/07/31 01:30:00;;;;;;;7.37;6.77;;;18.90;99.90;;;;;;5011852;28;20449;-67
2021/07/31 01:32:25;;;;;;;7.47;6.87;;;18.90;99.90;;;;;;5012166;28;20456;-67
2021/07/31 01:34:51;;;;;;;9.43;6.97;;;18.80;99.90;;;;;;5011944;28;20748;-68
2021/07/31 01:37:16;;;;;;;7.47;6.77;;;18.80;99.90;;;;;;5012024;28;20234;-67
2021/07/31 01:39:42;;;;;;;8.73;7.50;;;18.70;99.90;;;;;;5011695;28;20173;-67
2021/07/31 01:42:08;;;;;;;8.00;7.20;;;18.70;99.90;;;;;;5012052;28;20178;-68
2021/07/31 01:44:34;;;;;;;8.00;7.37;;;18.60;99.90;;;;;;5012114;28;20175;-67
2021/07/31 01:46:59;;;;;;;8.20;7.40;;;18.70;99.90;;;;;;5012169;28;20943;-67
2021/07/31 01:49:25;;;;;;;8.13;7.40;;;18.80;99.90;;;;;;5011508;28;20176;-67
2021/07/31 01:51:50;;;;;;;8.53;7.87;;;18.80;99.90;;;;;;5011934;28;20171;-67
2021/07/31 01:54:16;;;;;;;9.20;6.77;;;18.90;99.90;;;;;;5011823;28;20181;-67
2021/07/31 01:56:44;;;;;;;10.03;7.20;;;18.90;99.90;;;;;;5011760;28;20214;-67
2021/07/31 01:59:09;;;;;;;7.67;6.97;;;19.00;99.90;;;;;;5011483;28;20214;-67
2021/07/31 02:01:35;;;;;;;9.50;8.70;;;19.00;99.90;;;;;;5011856;28;20920;-67
2021/07/31 02:04:00;;;;;;;8.30;7.50;;;18.90;99.90;;;;;;5011718;28;20174;-67
2021/07/31 02:06:26;;;;;;;8.57;7.67;;;18.80;99.90;;;;;;5011694;28;20223;-67
2021/07/31 02:08:51;;;;;;;8.07;7.20;;;18.70;99.90;;;;;;5011411;28;20671;-68
2021/07/31 02:11:17;;;;;;;8.87;7.67;;;18.70;99.90;;;;;;5043527;28;20183;-67
2021/07/31 02:13:42;;;;;;;8.80;7.73;;;18.70;99.90;;;;;;5011893;28;20167;-67
2021/07/31 02:16:08;;;;;;;8.33;7.50;;;18.60;99.90;;;;;;5011607;28;20171;-67
2021/07/31 02:18:33;;;;;;;8.47;7.67;;;18.50;99.90;;;;;;5011249;28;20187;-67
2021/07/31 02:20:59;;;;;;;12.07;8.40;;;18.50;99.90;;;;;;5011633;28;20171;-68
2021/07/31 02:23:24;;;;;;;9.43;7.50;;;18.40;99.90;;;;;;5011599;28;20233;-67
2021/07/31 02:25:50;;;;;;;8.53;7.70;;;18.40;99.90;;;;;;5011546;28;20166;-67
2021/07/31 02:28:15;;;;;;;8.83;8.03;;;18.30;99.90;;;;;;5011984;28;20684;-67
2021/07/31 02:30:41;;;;;;;8.00;7.30;;;18.30;99.90;;;;;;5015099;28;20175;-67
2021/07/31 02:33:06;;;;;;;9.20;7.20;;;18.20;99.90;;;;;;5015147;28;20179;-67
2021/07/31 02:35:36;;;;;;;8.83;7.90;;;18.10;99.90;;;;;;5015471;28;20183;-67
2021/07/31 02:38:02;;;;;;;8.57;7.80;;;18.00;99.90;;;;;;5014803;28;20234;-68
2021/07/31 02:40:28;;;;;;;8.33;7.53;;;18.00;99.90;;;;;;5014743;28;20418;-67
2021/07/31 02:42:54;;;;;;;8.20;7.47;;;18.00;99.90;;;;;;5015271;28;20417;-67
2021/07/31 02:45:20;;;;;;;9.00;7.00;;;18.00;99.90;;;;;;5015142;28;20410;-67
2021/07/31 02:47:45;;;;;;;9.83;7.23;;;17.90;99.90;;;;;;5014855;28;20191;-67
2021/07/31 02:50:11;;;;;;;8.03;7.20;;;17.90;99.90;;;;;;5014427;28;20254;-67
2021/07/31 02:52:37;;;;;;;7.67;7.07;;;17.70;99.90;;;;;;5014822;28;20175;-67
2021/07/31 02:55:03;;;;;;;6.63;6.13;;;17.60;99.90;;;;;;5014736;28;20207;-67
2021/07/31 02:57:29;;;;;;;7.53;6.70;;;17.60;99.90;;;;;;5014799;28;20294;-67
2021/07/31 02:59:55;;;;;;;8.10;7.40;;;17.50;99.90;;;;;;5014553;28;20414;-67
2021/07/31 03:02:21;;;;;;;8.13;6.50;;;17.40;99.90;;;;;;5014606;28;20476;-67
2021/07/31 03:04:47;;;;;;;7.10;6.50;;;17.40;99.90;;;;;;5014498;28;20860;-67
2021/07/31 03:07:12;;;;;;;8.17;6.93;;;17.30;99.90;;;;;;5014283;28;20257;-67
2021/07/31 03:09:38;;;;;;;7.93;6.33;;;17.30;99.90;;;;;;5014246;28;20282;-67
2021/07/31 03:12:03;;;;;;;5.23;4.73;;;17.30;99.90;;;;;;5014548;28;20192;-67
2021/07/31 03:14:29;;;;;;;7.03;5.87;;;17.30;99.90;;;;;;5014459;28;20186;-67
2021/07/31 03:16:54;;;;;;;5.20;4.70;;;17.20;99.90;;;;;;5014168;28;20210;-67
2021/07/31 03:19:20;;;;;;;6.40;4.13;;;17.10;99.90;;;;;;5013994;28;20726;-67
2021/07/31 03:21:45;;;;;;;6.53;4.33;;;17.10;99.90;;;;;;5014165;28;20539;-67
2021/07/31 03:24:11;;;;;;;8.00;3.80;;;17.00;99.90;;;;;;5014370;28;20178;-67
2021/07/31 03:26:36;;;;;;;5.20;3.70;;;17.00;99.90;;;;;;5012774;28;20195;-67
2021/07/31 03:29:02;;;;;;;4.60;4.20;;;16.90;99.90;;;;;;5013835;28;20171;-67
2021/07/31 03:31:28;;;;;;;6.40;4.73;;;16.90;99.90;;;;;;5013992;28;20175;-67
2021/07/31 03:33:53;;;;;;;4.17;3.80;;;16.80;99.90;;;;;;5014062;28;20182;-67
2021/07/31 03:36:19;;;;;;;4.87;4.33;;;16.80;99.90;;;;;;5013751;28;20598;-67
2021/07/31 03:38:44;;;;;;;7.97;3.63;;;16.70;99.90;;;;;;5013626;28;20182;-67
2021/07/31 03:41:10;;;;;;;4.30;4.00;;;16.60;99.90;;;;;;5013231;28;20640;-67
2021/07/31 03:43:35;;;;;;;4.23;3.83;;;16.60;99.90;;;;;;5013895;28;20167;-67
2021/07/31 03:46:06;;;;;;;7.87;4.37;;;16.50;99.90;;;;;;5013841;28;20191;-67
2021/07/31 03:48:31;;;;;;;7.97;4.43;;;16.40;99.90;;;;;;5013437;28;20187;-67
2021/07/31 03:50:57;;;;;;;10.73;5.77;;;16.40;99.90;;;;;;5012379;28;20973;-67
2021/07/31 03:53:22;;;;;;;5.80;3.83;;;16.30;99.90;;;;;;5013667;28;20175;-67
2021/07/31 03:55:48;;;;;;;8.53;4.40;;;16.30;99.90;;;;;;5013632;28;20250;-67
2021/07/31 03:58:14;;;;;;;8.30;3.67;;;16.30;99.90;;;;;;5013235;28;20207;-67
2021/07/31 04:00:43;;;;;;;4.23;3.23;;;16.30;99.90;;;;;;5013399;28;20194;-67
2021/07/31 04:03:09;;;;;;;6.23;3.07;;;16.30;99.90;;;;;;5013436;28;20418;-67
2021/07/31 04:05:37;;;;;;;4.57;3.30;;;16.30;99.90;;;;;;5013357;28;20468;-67
2021/07/31 04:08:02;;;;;;;4.30;3.27;;;16.30;99.90;;;;;;5013693;28;20465;-66
2021/07/31 04:10:28;;;;;;;6.00;3.20;;;16.30;99.90;;;;;;5013063;28;20468;-66
2021/07/31 04:12:53;;;;;;;3.97;3.67;;;16.30;99.90;;;;;;5013111;28;20167;-66
2021/07/31 04:15:19;;;;;;;5.90;3.97;;;16.30;99.90;;;;;;5013274;28;20262;-66
2021/07/31 04:17:45;;;;;;;7.07;3.43;;;16.30;99.90;;;;;;5013103;28;20214;-66
2021/07/31 04:20:11;;;;;;;3.93;3.37;;;16.30;99.90;;;;;;5012717;28;20703;-66
2021/07/31 04:22:36;;;;;;;5.07;3.50;;;16.30;99.90;;;;;;5013106;28;20179;-66
2021/07/31 04:25:02;;;;;;;3.70;3.40;;;16.40;99.90;;;;;;5013348;28;20484;-66
2021/07/31 04:27:28;;;;;;;5.60;3.90;;;16.40;99.90;;;;;;5013030;28;20253;-66
2021/07/31 04:29:53;;;;;;;5.80;3.77;;;16.50;99.90;;;;;;5012749;28;20171;-66
2021/07/31 04:32:19;;;;;;;3.57;3.27;;;16.60;99.90;;;;;;5012932;28;20424;-66
2021/07/31 04:34:44;;;;;;;6.23;3.73;;;16.70;99.90;;;;;;5012813;28;20266;-66
2021/07/31 04:37:10;;;;;;;3.90;3.60;;;16.70;99.90;;;;;;5012786;28;20207;-66
2021/07/31 04:39:37;;;;;;;6.63;5.93;;;16.60;99.90;;;;;;5012713;28;20632;-66
2021/07/31 04:42:03;;;;;;;22.87;4.80;;;16.50;99.90;;;;;;5013004;28;20170;-66
2021/07/31 04:44:29;;;;;;;5.20;4.17;;;16.50;99.90;;;;;;5012531;28;20430;-66
2021/07/31 04:46:54;;;;;;;5.03;4.40;;;16.60;99.90;;;;;;5012802;28;20495;-66
2021/07/31 04:49:20;;;;;;;6.30;3.43;;;16.60;99.90;;;;;;5012263;28;20171;-66
2021/07/31 04:51:46;;;;;;;5.27;3.67;;;16.80;99.90;;;;;;5044393;28;20186;-66
2021/07/31 04:54:11;;;;;;;4.37;3.40;;;16.90;99.90;;;;;;5012633;28;20651;-66
2021/07/31 04:56:37;;;;;;;8.70;6.20;;;17.00;99.90;;;;;;5012514;28;20229;-65
2021/07/31 04:59:03;;;;;;;6.90;5.57;;;17.10;99.90;;;;;;5012430;28;20167;-66
2021/07/31 05:01:29;;;;;;;6.03;3.50;;;17.10;99.90;;;;;;5012533;28;20167;-66
2021/07/31 05:03:54;;;;;;;7.77;3.80;;;17.20;99.90;;;;;;5012294;28;20834;-65
2021/07/31 05:06:22;;;;;;;9.20;3.10;;;17.40;99.90;;;;;;5012346;28;20254;-65
2021/07/31 05:08:47;;;;;;;8.30;3.10;;;17.50;99.90;;;;;;5012178;28;20628;-66
2021/07/31 05:11:13;;;;;;;3.00;2.80;;;17.60;99.90;;;;;;5012169;28;20436;-66
2021/07/31 05:13:38;;;;;;;3.70;3.10;;;17.70;99.90;;;;;;5012357;28;20167;-65
2021/07/31 05:16:05;;;;;;;3.73;2.70;;;17.80;99.90;;;;;;5012311;28;20159;-66
2021/07/31 05:18:30;;;;;;;3.63;2.70;;;17.90;99.90;;;;;;5011731;28;20252;-66
2021/07/31 05:20:58;;;;;;;4.10;2.77;;;18.00;99.90;;;;;;5012284;28;20426;-65
2021/07/31 05:23:23;;;;;;;7.43;3.03;;;18.00;99.90;;;;;;5012149;28;20354;-66
2021/07/31 05:25:49;;;;;;;5.10;2.73;;;18.10;99.90;;;;;;5012282;28;20930;-66
2021/07/31 05:28:14;;;;;;;7.20;2.70;;;18.30;99.90;;;;;;5011853;28;20198;-66
2021/07/31 05:30:43;;;;;;;4.03;2.50;;;18.40;99.90;;;;;;5012381;28;20571;-66
2021/07/31 05:33:09;;;;;;;2.60;2.23;;;18.50;99.90;;;;;;5012035;28;20190;-66
2021/07/31 05:35:35;;;;;;;4.80;2.43;;;18.50;99.90;;;;;;5012081;28;20985;-65
2021/07/31 05:38:01;;;;;;;3.47;2.40;;;18.60;99.90;;;;;;5013089;28;20469;-66
2021/07/31 05:40:27;;;;;;;2.47;2.27;;;18.70;99.90;;;;;;5022717;28;20245;-66
2021/07/31 05:42:53;;;;;;;5.60;3.17;;;18.80;99.90;;;;;;5012010;28;20923;-66
2021/07/31 05:45:21;;;;;;;4.70;2.80;;;19.00;99.90;;;;;;5012252;28;20257;-66
2021/07/31 05:47:47;;;;;;;6.33;3.03;;;19.10;99.90;;;;;;5016659;28;20560;-66
2021/07/31 05:50:13;;;;;;;6.77;2.70;;;19.10;99.90;;;;;;5027589;28;20487;-66
2021/07/31 05:52:39;;;;;;;6.73;2.93;;;19.10;99.90;;;;;;5031737;28;20174;-66
2021/07/31 05:55:06;;;;;;;5.73;2.40;;;19.20;99.90;;;;;;5028449;28;20457;-66
2021/07/31 05:57:32;;;;;;;4.97;3.10;;;19.40;99.90;;;;;;5014055;28;20500;-66
2021/07/31 05:59:58;;;;;;;4.43;3.10;;;19.50;99.90;;;;;;5031335;28;20421;-66
2021/07/31 06:02:23;;;;;;;8.27;3.40;;;19.60;99.90;;;;;;5031568;28;20413;-66
2021/07/31 06:04:49;;;;;;;3.73;3.07;;;19.60;99.90;;;;;;5034928;28;20162;-66
2021/07/31 06:07:15;;;;;;;9.20;3.20;;;19.60;99.90;;;;;;5035192;28;20735;-66
2021/07/31 06:09:41;;;;;;;3.60;2.60;;;19.60;99.90;;;;;;5035077;28;20174;-66
2021/07/31 06:12:09;;;;;;;4.07;3.70;;;19.60;99.90;;;;;;5029618;28;20183;-66
2021/07/31 06:14:36;;;;;;;5.87;3.20;;;19.70;99.90;;;;;;5015451;28;20448;-66
2021/07/31 06:17:03;;;;;;;3.73;3.53;;;19.80;99.90;;;;;;5015260;28;20544;-66
2021/07/31 06:19:29;;;;;;;4.90;2.97;;;19.80;99.90;;;;;;5014868;28;20465;-65
2021/07/31 06:21:55;;;;;;;5.43;2.77;;;19.90;99.90;;;;;;5015408;28;20413;-66
2021/07/31 06:24:21;;;;;;;3.10;2.80;;;20.00;99.90;;;;;;5015313;28;20422;-66
2021/07/31 06:26:46;;;;;;;3.93;3.57;;;20.00;99.90;;;;;;5015120;28;20237;-66
2021/07/31 06:29:12;;;;;;;2.97;2.60;;;20.10;99.90;;;;;;5015016;28;20182;-64
2021/07/31 06:31:37;;;;;;;3.90;3.27;;;19.90;99.90;;;;;;5015094;28;20179;-64
2021/07/31 06:34:03;;;;;;;2.90;2.63;;;20.00;99.90;;;;;;5015201;28;20364;-63
2021/07/31 06:36:29;;;;;;;2.97;2.67;;;20.30;99.90;;;;;;5015189;28;20195;-66
2021/07/31 06:38:54;;;;;;;4.60;2.90;;;20.50;99.90;;;;;;5014795;28;20163;-61
2021/07/31 06:41:20;;;;;;;3.13;2.80;;;20.70;99.90;;;;;;5014756;28;20233;-61
2021/07/31 06:43:45;;;;;;;5.43;3.00;;;20.80;99.90;;;;;;5013518;28;20175;-61
2021/07/31 06:46:15;;;;;;;6.63;2.90;;;20.90;99.90;;;;;;5014896;28;20171;-61
2021/07/31 06:48:42;;;;;;;5.47;2.60;;;20.90;99.90;;;;;;5014587;28;20171;-62
2021/07/31 06:51:08;;;;;;;7.10;2.73;;;21.00;99.90;;;;;;5014808;28;20797;-62
2021/07/31 06:53:34;;;;;;;7.17;2.77;;;21.30;99.90;;;;;;5015021;28;20422;-61
2021/07/31 06:56:01;;;;;;;9.93;4.63;;;21.40;99.90;;;;;;5014721;28;20420;-61
2021/07/31 06:58:27;;;;;;;3.53;2.80;;;21.70;99.90;;;;;;5014209;28;20496;-61
2021/07/31 07:00:52;;;;;;;4.33;3.93;;;22.00;99.90;;;;;;5014586;28;20426;-61
2021/07/31 07:03:18;;;;;;;4.07;2.47;;;22.20;99.90;;;;;;5014040;28;20224;-61
2021/07/31 07:05:44;;;;;;;2.87;2.67;;;22.30;99.90;;;;;;5014355;28;20175;-62
2021/07/31 07:08:09;;;;;;;4.20;2.13;;;22.00;99.90;;;;;;5014336;28;20316;-61
2021/07/31 07:10:35;;;;;;;3.07;2.27;;;21.80;99.90;;;;;;5013649;28;20174;-62
2021/07/31 07:13:00;;;;;;;4.37;2.20;;;21.90;99.90;;;;;;5014027;28;20236;-61
2021/07/31 07:15:28;;;;;;;4.37;2.70;;;22.00;99.90;;;;;;5013194;28;20625;-61
2021/07/31 07:17:54;;;;;;;5.00;2.83;;;22.10;99.90;;;;;;5014281;28;20281;-62
2021/07/31 07:20:19;;;;;;;7.27;2.67;;;22.10;99.90;;;;;;5014091;28;20449;-62
2021/07/31 07:22:45;;;;;;;4.20;2.83;;;22.20;99.90;;;;;;5014643;28;20422;-61
2021/07/31 07:25:11;;;;;;;7.77;3.33;;;22.10;99.90;;;;;;5014295;28;20175;-62
2021/07/31 07:27:36;;;;;;;6.07;2.80;;;22.10;99.90;;;;;;5014072;28;20614;-62
2021/07/31 07:30:02;;;;;;;6.10;2.87;;;22.10;99.90;;;;;;5013876;28;20183;-62
2021/07/31 07:32:28;;;;;;;3.23;1.77;;;22.40;99.90;;;;;;5014110;28;20175;-62
2021/07/31 07:34:53;;;;;;;6.37;3.10;;;22.60;99.90;;;;;;5014321;28;20414;-61
2021/07/31 07:37:19;;;;;;;3.93;2.63;;;22.90;99.90;;;;;;5013972;28;20230;-61
2021/07/31 07:39:44;;;;;;;4.50;2.53;;;23.00;99.90;;;;;;5013708;28;20178;-60
2021/07/31 07:42:10;;;;;;;4.50;2.93;;;23.10;99.90;;;;;;5013898;28;20194;-57
2021/07/31 07:44:36;;;;;;;2.90;2.50;;;23.60;99.90;;;;;;5013965;28;20167;-61
2021/07/31 07:47:02;;;;;;;3.27;2.67;;;23.20;99.90;;;;;;5013811;28;20680;-60
2021/07/31 07:49:27;;;;;;;4.20;2.83;;;23.30;99.90;;;;;;5013548;28;20450;-60
2021/07/31 07:51:53;;;;;;;3.67;2.47;;;23.30;99.90;;;;;;5013890;28;20225;-61
2021/07/31 07:54:18;;;;;;;2.87;1.80;;;23.40;99.90;;;;;;5013768;28;20653;-60
2021/07/31 07:56:43;;;;;;;4.33;2.43;;;23.20;99.90;;;;;;5013426;28;20207;-62
2021/07/31 07:59:09;;;;;;;4.77;2.10;;;23.00;99.90;;;;;;5013317;28;20171;-60
2021/07/31 08:01:35;;;;;;;5.07;2.03;;;23.10;99.90;;;;;;5013821;28;20170;-60
2021/07/31 08:04:01;;;;;;;3.63;2.13;;;23.10;99.90;;;;;;5013693;28;20167;-60
2021/07/31 08:06:27;;;;;;;3.97;2.60;;;23.30;99.90;;;;;;5012719;28;20440;-60
2021/07/31 08:08:53;;;;;;;2.67;2.47;;;23.50;99.90;;;;;;5013178;28;20422;-60
2021/07/31 08:11:18;;;;;;;3.10;2.43;;;23.70;99.90;;;;;;5013372;28;20246;-61
2021/07/31 08:13:44;;;;;;;3.93;2.30;;;24.50;99.90;;;;;;5013405;28;20177;-60
2021/07/31 08:16:10;;;;;;;4.67;2.10;;;24.50;99.90;;;;;;5013488;28;20175;-61
2021/07/31 08:18:35;;;;;;;4.80;3.37;;;24.70;99.70;;;;;;5012926;28;20194;-61
2021/07/31 08:21:01;;;;;;;2.73;2.27;;;24.70;99.90;;;;;;5013472;28;20410;-62
2021/07/31 08:23:27;;;;;;;4.50;2.33;;;25.00;99.30;;;;;;5013181;28;20174;-62
2021/07/31 08:25:52;;;;;;;5.30;2.03;;;25.30;98.20;;;;;;5012852;28;21114;-60
2021/07/31 08:28:18;;;;;;;4.63;2.07;;;24.90;98.50;;;;;;5012982;28;20195;-61
2021/07/31 08:30:43;;;;;;;3.13;2.37;;;25.00;98.00;;;;;;5013113;28;20230;-62
2021/07/31 08:33:09;;;;;;;4.90;2.90;;;24.70;98.60;;;;;;5013005;28;20171;-61
2021/07/31 08:35:34;;;;;;;2.67;2.47;;;24.70;98.40;;;;;;5013072;28;20233;-61
2021/07/31 08:38:00;;;;;;;9.23;2.30;;;24.80;98.10;;;;;;5012719;28;20265;-62
2021/07/31 08:40:26;;;;;;;5.17;2.27;;;25.00;97.90;;;;;;5012543;28;20636;-61
2021/07/31 08:42:52;;;;;;;4.00;2.30;;;25.00;98.00;;;;;;5012716;28;20583;-61
2021/07/31 08:45:17;;;;;;;4.00;2.37;;;24.80;98.10;;;;;;5013121;28;20178;-62
2021/07/31 08:47:45;;;;;;;4.50;2.57;;;24.80;98.60;;;;;;5012718;28;20221;-62
2021/07/31 08:50:11;;;;;;;3.37;2.30;;;25.10;97.70;;;;;;5012424;28;20178;-62
2021/07/31 08:52:40;;;;;;;7.27;2.60;;;25.20;97.20;;;;;;5011388;28;20421;-61
2021/07/31 08:55:06;;;;;;;4.40;3.30;;;25.40;97.30;;;;;;5012564;28;20795;-62
2021/07/31 08:57:32;;;;;;;4.27;2.20;;;25.70;97.00;;;;;;5012390;28;20844;-62
2021/07/31 08:59:57;;;;;;;2.90;2.53;;;25.70;96.90;;;;;;5012323;28;20410;-61
2021/07/31 09:02:23;;;;;;;4.23;2.30;;;26.30;96.10;;;;;;5012613;28;20173;-61
2021/07/31 09:04:52;;;;;;;4.70;3.83;;;26.60;95.00;;;;;;5012482;28;20193;-61
2021/07/31 09:07:17;;;;;;;8.10;2.47;;;26.50;94.70;;;;;;5012349;28;20246;-61
2021/07/31 09:09:43;;;;;;;2.60;2.03;;;26.10;94.30;;;;;;5012563;28;20561;-61
2021/07/31 09:12:10;;;;;;;3.97;2.10;;;25.80;94.90;;;;;;5012613;28;20612;-61
2021/07/31 09:14:43;;;;;;;7.10;2.13;;;25.30;95.70;;;;;;5012314;28;20201;-61
2021/07/31 09:17:22;;;;;;;2.50;2.10;;;25.60;95.30;;;;;;5012204;28;21006;-61
2021/07/31 09:19:48;;;;;;;2.90;2.10;;;26.00;94.10;;;;;;5011978;28;20500;-62
2021/07/31 09:22:13;;;;;;;5.10;2.10;;;26.30;94.10;;;;;;5012235;28;21004;-62
2021/07/31 09:24:39;;;;;;;4.93;2.40;;;26.80;92.90;;;;;;5012024;28;20183;-62
2021/07/31 09:27:23;;;;;;;4.77;2.23;;;26.90;93.50;;;;;;5012171;28;20186;-61
2021/07/31 09:30:00;;;;;;;2.53;1.83;;;27.20;93.00;;;;;;5011959;28;20171;-62
2021/07/31 09:32:36;;;;;;;2.93;2.60;;;27.60;91.60;;;;;;5011581;28;20424;-62
2021/07/31 09:35:04;;;;;;;2.50;1.90;;;27.10;91.10;;;;;;5012174;28;20452;-62
2021/07/31 09:37:30;;;;;;;4.20;2.00;;;27.00;91.00;;;;;;5011732;28;20469;-61
2021/07/31 09:40:04;;;;;;;3.90;2.43;;;27.20;90.80;;;;;;5015592;28;20923;-62
2021/07/31 09:42:37;;;;;;;4.40;2.53;;;27.10;92.10;;;;;;5016123;28;20177;-61
2021/07/31 09:45:08;;;;;;;4.43;2.73;;;27.20;90.90;;;;;;5016116;28;20471;-62
2021/07/31 09:47:34;;;;;;;2.90;2.57;;;26.90;91.30;;;;;;5016011;28;20434;-62
2021/07/31 09:50:00;;;;;;;6.17;2.20;;;27.20;90.20;;;;;;5015678;28;20483;-62
2021/07/31 09:52:27;;;;;;;3.90;2.90;;;27.30;89.20;;;;;;5015982;28;20430;-61
2021/07/31 09:54:56;;;;;;;3.37;2.50;;;27.20;86.10;;;;;;5015970;28;20171;-61
2021/07/31 09:57:26;;;;;;;4.80;2.27;;;28.40;85.30;;;;;;5015743;28;20461;-60
2021/07/31 09:59:55;;;;;;;3.90;1.90;;;28.70;81.40;;;;;;5015544;28;20420;-62
2021/07/31 10:02:21;;;;;;;3.70;2.77;;;28.10;82.20;;;;;;5015671;28;20414;-62
2021/07/31 10:04:48;;;;;;;2.40;2.10;;;28.60;81.50;;;;;;5015676;28;20424;-62
2021/07/31 10:07:16;;;;;;;4.77;2.60;;;29.90;79.00;;;;;;5015576;28;20519;-61
2021/07/31 10:09:52;;;;;;;4.53;2.43;;;30.00;75.70;;;;;;5016022;28;20418;-62
2021/07/31 10:12:26;;;;;;;2.77;2.57;;;30.40;76.10;;;;;;5015725;28;20422;-63
2021/07/31 10:14:53;;;;;;;4.30;1.90;;;31.00;73.50;;;;;;5015435;28;20429;-63
2021/07/31 10:17:30;;;;;;;4.50;4.13;;;31.30;73.20;;;;;;5015402;28;20472;-62
2021/07/31 10:19:56;;;;;;;2.40;2.20;;;31.50;71.60;;;;;;5015086;28;20417;-62
2021/07/31 10:22:43;;;;;;;2.60;2.40;;;32.50;68.20;;;;;;5015419;28;20464;-62
2021/07/31 10:25:25;;;;;;;4.03;2.20;;;31.80;65.10;;;;;;5015258;28;20476;-62
2021/07/31 10:27:53;;;;;;;3.63;2.03;;;31.50;66.10;;;;;;5015412;28;20898;-62
2021/07/31 10:30:38;;;;;;;2.60;1.97;;;31.80;62.60;;;;;;5014978;28;20997;-62
2021/07/31 10:33:06;;;;;;;4.10;1.90;;;31.50;62.10;;;;;;5015294;28;20838;-61
2021/07/31 10:35:33;;;;;;;4.23;3.40;;;30.70;61.20;;;;;;5015155;28;20425;-62
2021/07/31 10:38:07;;;;;;;4.13;1.97;;;29.90;63.30;;;;;;5014965;28;20994;-62
2021/07/31 10:40:37;;;;;;;1.73;1.60;;;29.90;64.30;;;;;;5014853;28;20416;-62
2021/07/31 10:43:05;;;;;;;2.87;2.43;;;30.30;64.60;;;;;;5015093;28;20413;-62
2021/07/31 10:45:32;;;;;;;2.60;2.30;;;30.70;63.30;;;;;;5015110;28;20449;-62
2021/07/31 10:48:03;;;;;;;2.20;2.10;;;30.50;63.20;;;;;;5014782;28;20524;-61
2021/07/31 10:50:29;;;;;;;3.17;2.13;;;30.20;61.60;;;;;;5014336;28;21001;-62
2021/07/31 10:53:06;;;;;;;5.83;2.10;;;30.20;62.30;;;;;;5014882;28;20513;-62
2021/07/31 10:55:37;;;;;;;2.93;2.73;;;30.10;62.30;;;;;;5014954;28;20182;-62
2021/07/31 10:58:09;;;;;;;2.40;2.20;;;29.80;63.60;;;;;;5014578;28;20977;-62
2021/07/31 11:00:39;;;;;;;2.90;2.60;;;29.20;63.80;;;;;;5014325;28;20414;-61
2021/07/31 11:03:35;;;;;;;4.40;2.00;;;29.00;65.10;;;;;;5014704;28;20766;-61
2021/07/31 11:06:03;;;;;;;2.63;2.23;;;28.90;65.40;;;;;;5014671;28;20444;-62
2021/07/31 11:08:45;;;;;;;3.77;3.47;;;28.10;64.70;;;;;;5014132;28;20985;-62
2021/07/31 11:11:19;;;;;;;4.07;2.20;;;28.30;66.10;;;;;;5014486;28;20931;-62
2021/07/31 11:13:44;;;;;;;2.50;2.07;;;28.20;66.30;;;;;;5014394;28;20429;-61
2021/07/31 11:16:18;;;;;;;2.40;1.80;;;28.10;64.30;;;;;;5014391;28;20414;-62
2021/07/31 11:18:47;;;;;;;3.43;2.60;;;28.40;64.70;;;;;;5014167;28;20175;-62
2021/07/31 11:21:30;;;;;;;3.80;2.63;;;28.10;65.60;;;;;;5014313;28;20422;-62
2021/07/31 11:24:07;;;;;;;3.43;3.13;;;27.90;65.60;;;;;;5014292;28;20514;-62
2021/07/31 11:27:03;;;;;;;3.10;2.13;;;28.10;66.80;;;;;;5014116;28;20492;-62
2021/07/31 11:29:29;;;;;;;4.30;2.47;;;28.40;66.60;;;;;;5010653;28;20429;-62
2021/07/31 11:32:03;;;;;;;2.73;2.07;;;29.10;67.10;;;;;;5014052;28;20410;-62
2021/07/31 11:34:39;;;;;;;5.10;2.40;;;29.20;63.00;;;;;;5013990;28;20258;-62
2021/07/31 11:37:06;;;;;;;4.27;2.30;;;28.80;63.50;;;;;;5013928;28;20453;-62
2021/07/31 11:39:32;;;;;;;3.13;2.00;;;28.50;66.10;;;;;;5013672;28;20505;-62
2021/07/31 11:41:58;;;;;;;4.63;2.60;;;28.80;65.30;;;;;;5013885;28;20517;-62
2021/07/31 11:44:32;;;;;;;2.93;2.63;;;30.60;61.00;;;;;;5013913;28;20421;-62
2021/07/31 11:46:58;;;;;;;2.70;2.50;;;31.90;57.40;;;;;;5012927;28;20296;-62
2021/07/31 11:49:26;;;;;;;2.80;2.27;;;31.60;57.60;;;;;;5012158;28;20430;-62
2021/07/31 11:51:53;;;;;;;3.40;2.20;;;31.80;57.70;;;;;;5013734;28;20422;-61
2021/07/31 11:54:20;;;;;;;4.13;2.50;;;33.00;57.50;;;;;;5013680;28;20453;-62
2021/07/31 11:56:46;;;;;;;3.10;2.50;;;35.30;54.50;;;;;;5013399;28;20465;-62
2021/07/31 11:59:20;;;;;;;2.07;1.90;;;38.20;50.20;;;;;;5013297;28;20432;-62
2021/07/31 12:01:47;;;;;;;3.33;1.93;;;40.10;44.10;;;;;;5012929;28;20411;-62
2021/07/31 12:04:12;;;;;;;4.07;2.53;;;39.70;42.90;;;;;;5013442;28;20409;-60
2021/07/31 12:06:42;;;;;;;6.70;5.53;;;38.40;42.70;;;;;;5013275;28;20542;-62
2021/07/31 12:09:27;;;;;;;5.73;4.83;;;36.30;44.40;;;;;;5013078;28;20182;-61
2021/07/31 12:11:55;;;;;;;2.60;2.40;;;34.10;46.70;;;;;;5013389;28;20493;-62
2021/07/31 12:14:41;;;;;;;3.43;2.50;;;32.70;47.80;;;;;;5013333;28;20414;-62
2021/07/31 12:17:32;;;;;;;2.50;2.30;;;33.30;47.90;;;;;;5013184;28;20464;-62
2021/07/31 12:19:59;;;;;;;2.77;2.57;;;33.80;47.30;;;;;;5007789;28;20955;-62
2021/07/31 12:22:34;;;;;;;3.43;2.50;;;36.50;44.50;;;;;;5013236;28;20780;-62
2021/07/31 12:25:15;;;;;;;2.40;2.23;;;38.30;42.60;;;;;;5011816;28;20425;-62
2021/07/31 12:28:05;;;;;;;2.33;2.13;;;38.80;40.20;;;;;;5013038;28;20865;-62
2021/07/31 12:30:38;;;;;;;2.00;1.90;;;40.50;40.70;;;;;;5012844;28;20923;-62
2021/07/31 12:33:07;;;;;;;2.57;2.30;;;41.30;39.10;;;;;;5013005;28;21090;-62
2021/07/31 12:35:39;;;;;;;2.40;2.20;;;40.70;39.50;;;;;;5012983;28;20824;-62
2021/07/31 12:38:10;;;;;;;2.43;1.80;;;41.70;38.90;;;;;;5012738;28;20462;-62
2021/07/31 12:40:38;;;;;;;2.47;2.10;;;42.10;38.40;;;;;;5012507;28;20421;-60
2021/07/31 12:43:09;;;;;;;3.77;2.73;;;42.00;36.30;;;;;;5012719;28;20779;-60
2021/07/31 12:45:35;;;;;;;3.47;2.70;;;38.40;37.00;;;;;;5012754;28;20572;-60